VIR128K KJFK-EGCC
Flight info
| Callsign | VIR128K |
|---|---|
| Flight time | 5h 55m |
| Altitude | 41000 |
| Route | MERIT DCT HFD DCT PUT/ N0494F390 DCT BOS DCT TUSKY N321A ELSIR/M084F410 DCT 50N050W 52N040W 54N030W/ N0494F410 55N020W DCT RESNO DCT NETKI DCT BOFUM Q37 MALUD |
| Aircraft | A35K/H-SDE2E3GHIJ3J4J5LM1ORWXY/LB1D1 |
Departure
| Time | 2026-05-04 14:32 |
|---|---|
| Airport | John F. Kennedy International Airport (KJFK) |
Arrival
| Time | 2026-05-04 20:27 |
|---|---|
| Airport | Manchester Airport (EGCC) |
| Time | Latitude | Longitude | Altitude | Speed | Heading |
|---|---|---|---|---|---|
| 2026-05-04 13:58 | 40.64388 | -73.77921 | 29 ft | 0 kts | 240° |
| 2026-05-04 14:07 | 40.64388 | -73.77920 | 47 ft | 0 kts | 240° |
| 2026-05-04 14:10 | 40.64389 | -73.77920 | 29 ft | 0 kts | 240° |
| 2026-05-04 14:20 | 40.64391 | -73.77914 | 29 ft | 2 kts | 237° |
| 2026-05-04 14:21 | 40.64412 | -73.77881 | 27 ft | 2 kts | 218° |
| 2026-05-04 14:21 | 40.64426 | -73.77870 | 27 ft | 2 kts | 189° |
| 2026-05-04 14:21 | 40.64442 | -73.77873 | 28 ft | 2 kts | 140° |
| 2026-05-04 14:21 | 40.64450 | -73.77885 | 27 ft | 1 kts | 108° |
| 2026-05-04 14:22 | 40.64451 | -73.77887 | 27 ft | 0 kts | 103° |
| 2026-05-04 14:22 | 40.64451 | -73.77886 | 27 ft | 1 kts | 103° |
| 2026-05-04 14:22 | 40.64449 | -73.77874 | 26 ft | 2 kts | 103° |
| 2026-05-04 14:22 | 40.64440 | -73.77833 | 29 ft | 7 kts | 108° |
| 2026-05-04 14:23 | 40.64384 | -73.77716 | 29 ft | 1 kts | 134° |
| 2026-05-04 14:23 | 40.64359 | -73.77687 | 28 ft | 7 kts | 142° |
| 2026-05-04 14:23 | 40.64312 | -73.77650 | 28 ft | 9 kts | 149° |
| 2026-05-04 14:24 | 40.64249 | -73.77603 | 28 ft | 11 kts | 152° |
| 2026-05-04 14:24 | 40.64176 | -73.77551 | 29 ft | 12 kts | 150° |
| 2026-05-04 14:24 | 40.64121 | -73.77499 | 28 ft | 0 kts | 139° |
| 2026-05-04 14:24 | 40.64113 | -73.77489 | 28 ft | 3 kts | 138° |
| 2026-05-04 14:25 | 40.64098 | -73.77469 | 28 ft | 0 kts | 133° |
| 2026-05-04 14:25 | 40.64058 | -73.77406 | 28 ft | 11 kts | 130° |
| 2026-05-04 14:25 | 40.64031 | -73.77323 | 28 ft | 10 kts | 71° |
| 2026-05-04 14:26 | 40.64074 | -73.77266 | 29 ft | 8 kts | 33° |
| 2026-05-04 14:26 | 40.64126 | -73.77223 | 31 ft | 9 kts | 31° |
| 2026-05-04 14:26 | 40.64191 | -73.77173 | 30 ft | 12 kts | 30° |
| 2026-05-04 14:26 | 40.64277 | -73.77105 | 29 ft | 16 kts | 32° |
| 2026-05-04 14:27 | 40.64381 | -73.77024 | 28 ft | 19 kts | 30° |
| 2026-05-04 14:27 | 40.64503 | -73.76983 | 26 ft | 13 kts | 13° |
| 2026-05-04 14:27 | 40.64588 | -73.76925 | 30 ft | 15 kts | 30° |
| 2026-05-04 14:27 | 40.64684 | -73.76850 | 28 ft | 17 kts | 31° |
| 2026-05-04 14:28 | 40.64794 | -73.76764 | 28 ft | 19 kts | 31° |
| 2026-05-04 14:28 | 40.64909 | -73.76674 | 27 ft | 20 kts | 31° |
| 2026-05-04 14:28 | 40.65029 | -73.76581 | 27 ft | 10 kts | 31° |
| 2026-05-04 14:28 | 40.65086 | -73.76528 | 27 ft | 11 kts | 50° |
| 2026-05-04 14:29 | 40.65089 | -73.76465 | 28 ft | 0 kts | 112° |
| 2026-05-04 14:29 | 40.65089 | -73.76464 | 28 ft | 1 kts | 112° |
| 2026-05-04 14:30 | 40.65067 | -73.76407 | 29 ft | 11 kts | 120° |
| 2026-05-04 14:30 | 40.65031 | -73.76363 | 28 ft | 3 kts | 172° |
| 2026-05-04 14:30 | 40.64991 | -73.76379 | 28 ft | 0 kts | 211° |
| 2026-05-04 14:31 | 40.64921 | -73.76435 | 28 ft | 43 kts | 211° |
| 2026-05-04 14:31 | 40.63626 | -73.77448 | 29 ft | 166 kts | 212° |
| 2026-05-04 14:32 | 40.61734 | -73.78839 | 1629 ft | 157 kts | 211° |
| 2026-05-04 14:32 | 40.60707 | -73.79574 | 1969 ft | 180 kts | 211° |
| 2026-05-04 14:32 | 40.59589 | -73.80455 | 2426 ft | 192 kts | 216° |
| 2026-05-04 14:32 | 40.58463 | -73.81445 | 3127 ft | 196 kts | 216° |
| 2026-05-04 14:33 | 40.57327 | -73.82415 | 3814 ft | 199 kts | 216° |
| 2026-05-04 14:33 | 40.56115 | -73.83389 | 4405 ft | 204 kts | 215° |
| 2026-05-04 14:33 | 40.54959 | -73.84543 | 4836 ft | 217 kts | 234° |
| 2026-05-04 14:33 | 40.54313 | -73.86418 | 4982 ft | 234 kts | 250° |
| 2026-05-04 14:34 | 40.53953 | -73.88519 | 5416 ft | 243 kts | 264° |
| 2026-05-04 14:34 | 40.54229 | -73.90733 | 6381 ft | 247 kts | 289° |
| 2026-05-04 14:34 | 40.55300 | -73.92502 | 7190 ft | 262 kts | 320° |
| 2026-05-04 14:34 | 40.57067 | -73.93297 | 7988 ft | 282 kts | 353° |
| 2026-05-04 14:35 | 40.59019 | -73.92763 | 8881 ft | 294 kts | 20° |
| 2026-05-04 14:35 | 40.60804 | -73.91401 | 9811 ft | 300 kts | 32° |
| 2026-05-04 14:35 | 40.62460 | -73.89677 | 10513 ft | 312 kts | 37° |
| 2026-05-04 14:35 | 40.64158 | -73.87745 | 10880 ft | 333 kts | 38° |
| 2026-05-04 14:36 | 40.65974 | -73.85694 | 11244 ft | 354 kts | 37° |
| 2026-05-04 14:36 | 40.67931 | -73.83581 | 11573 ft | 373 kts | 36° |
| 2026-05-04 14:36 | 40.70011 | -73.81438 | 12042 ft | 386 kts | 34° |
| 2026-05-04 14:36 | 40.72165 | -73.79284 | 12740 ft | 392 kts | 34° |
| 2026-05-04 14:37 | 40.74373 | -73.77111 | 13477 ft | 397 kts | 33° |
| 2026-05-04 14:37 | 40.76602 | -73.74933 | 14201 ft | 401 kts | 33° |
| 2026-05-04 14:37 | 40.78120 | -73.73451 | 14646 ft | 404 kts | 33° |
| 2026-05-04 14:37 | 40.80397 | -73.71223 | 15257 ft | 411 kts | 33° |
| 2026-05-04 14:38 | 40.82732 | -73.68940 | 15591 ft | 425 kts | 33° |
| 2026-05-04 14:38 | 40.85107 | -73.66614 | 16037 ft | 434 kts | 33° |
| 2026-05-04 14:38 | 40.87574 | -73.64186 | 16676 ft | 439 kts | 33° |
| 2026-05-04 14:38 | 40.89997 | -73.61793 | 17322 ft | 443 kts | 32° |
| 2026-05-04 14:39 | 40.92474 | -73.59344 | 18007 ft | 447 kts | 32° |
| 2026-05-04 14:39 | 40.94973 | -73.56872 | 18646 ft | 450 kts | 32° |
| 2026-05-04 14:39 | 40.97468 | -73.54399 | 19550 ft | 444 kts | 32° |
| 2026-05-04 14:40 | 41.02366 | -73.49534 | 21325 ft | 441 kts | 32° |
| 2026-05-04 14:40 | 41.04828 | -73.47093 | 22002 ft | 443 kts | 32° |
| 2026-05-04 14:40 | 41.07307 | -73.44635 | 22674 ft | 447 kts | 32° |
| 2026-05-04 14:40 | 41.09807 | -73.42154 | 23320 ft | 450 kts | 32° |
| 2026-05-04 14:41 | 41.12321 | -73.39656 | 23920 ft | 453 kts | 32° |
| 2026-05-04 14:41 | 41.14852 | -73.37137 | 24437 ft | 457 kts | 32° |
| 2026-05-04 14:41 | 41.19982 | -73.32021 | 25494 ft | 464 kts | 32° |
| 2026-05-04 14:42 | 41.25192 | -73.26813 | 26430 ft | 474 kts | 32° |
| 2026-05-04 14:42 | 41.27834 | -73.24169 | 26933 ft | 477 kts | 32° |
| 2026-05-04 14:42 | 41.30490 | -73.21507 | 27464 ft | 480 kts | 32° |
| 2026-05-04 14:43 | 41.33171 | -73.18816 | 27952 ft | 484 kts | 32° |
| 2026-05-04 14:43 | 41.35823 | -73.16029 | 28433 ft | 490 kts | 37° |
| 2026-05-04 14:43 | 41.38226 | -73.12778 | 28954 ft | 497 kts | 46° |
| 2026-05-04 14:43 | 41.40291 | -73.09049 | 29464 ft | 503 kts | 52° |
| 2026-05-04 14:44 | 41.42189 | -73.05095 | 29884 ft | 508 kts | 55° |
| 2026-05-04 14:44 | 41.44000 | -73.01038 | 30255 ft | 512 kts | 56° |
| 2026-05-04 14:44 | 41.45780 | -72.96916 | 30623 ft | 514 kts | 57° |
| 2026-05-04 14:44 | 41.47553 | -72.92780 | 31023 ft | 515 kts | 57° |
| 2026-05-04 14:45 | 41.49347 | -72.88615 | 31264 ft | 519 kts | 57° |
| 2026-05-04 14:45 | 41.51153 | -72.84448 | 31702 ft | 519 kts | 57° |
| 2026-05-04 14:45 | 41.52966 | -72.80284 | 32153 ft | 518 kts | 57° |
| 2026-05-04 14:45 | 41.54782 | -72.76128 | 32572 ft | 518 kts | 57° |
| 2026-05-04 14:46 | 41.56602 | -72.71970 | 32972 ft | 518 kts | 57° |
| 2026-05-04 14:46 | 41.58421 | -72.67813 | 33359 ft | 519 kts | 57° |
| 2026-05-04 14:46 | 41.60240 | -72.63652 | 33726 ft | 519 kts | 57° |
| 2026-05-04 14:46 | 41.62057 | -72.59487 | 34046 ft | 519 kts | 57° |
| 2026-05-04 14:47 | 41.63878 | -72.55308 | 34257 ft | 522 kts | 57° |
| 2026-05-04 14:47 | 41.65695 | -72.51170 | 34494 ft | 523 kts | 57° |
| 2026-05-04 14:47 | 41.67589 | -72.46952 | 34817 ft | 522 kts | 56° |
| 2026-05-04 14:47 | 41.69472 | -72.42797 | 35104 ft | 522 kts | 56° |
| 2026-05-04 14:48 | 41.71357 | -72.38645 | 35371 ft | 523 kts | 56° |
| 2026-05-04 14:48 | 41.73243 | -72.34481 | 35615 ft | 523 kts | 56° |
| 2026-05-04 14:48 | 41.75125 | -72.30307 | 35853 ft | 524 kts | 56° |
| 2026-05-04 14:48 | 41.77005 | -72.26124 | 36075 ft | 525 kts | 57° |
| 2026-05-04 14:49 | 41.78860 | -72.21985 | 36250 ft | 527 kts | 57° |
| 2026-05-04 14:49 | 41.80748 | -72.17761 | 36398 ft | 529 kts | 57° |
| 2026-05-04 14:49 | 41.82637 | -72.13527 | 36678 ft | 529 kts | 57° |
| 2026-05-04 14:49 | 41.84519 | -72.09304 | 36970 ft | 527 kts | 57° |
| 2026-05-04 14:50 | 41.86402 | -72.05071 | 37173 ft | 528 kts | 57° |
| 2026-05-04 14:50 | 41.88282 | -72.00840 | 37394 ft | 528 kts | 57° |
| 2026-05-04 14:50 | 41.90162 | -71.96603 | 37590 ft | 529 kts | 57° |
| 2026-05-04 14:50 | 41.92044 | -71.92358 | 37779 ft | 529 kts | 57° |
| 2026-05-04 14:51 | 41.93924 | -71.88110 | 37924 ft | 531 kts | 57° |
| 2026-05-04 14:51 | 41.95815 | -71.83835 | 37988 ft | 533 kts | 57° |
| 2026-05-04 14:51 | 41.97745 | -71.79584 | 38236 ft | 532 kts | 56° |
| 2026-05-04 14:51 | 41.99735 | -71.75391 | 38471 ft | 531 kts | 55° |
| 2026-05-04 14:52 | 42.01742 | -71.71234 | 38648 ft | 531 kts | 55° |
| 2026-05-04 14:52 | 42.03758 | -71.67065 | 38771 ft | 532 kts | 55° |
| 2026-05-04 14:52 | 42.05770 | -71.62883 | 38896 ft | 532 kts | 55° |
| 2026-05-04 14:52 | 42.07772 | -71.58694 | 38945 ft | 533 kts | 56° |
| 2026-05-04 14:53 | 42.11762 | -71.50274 | 38961 ft | 534 kts | 56° |
| 2026-05-04 14:53 | 42.15738 | -71.41828 | 38939 ft | 534 kts | 56° |
| 2026-05-04 14:54 | 42.19708 | -71.33372 | 38922 ft | 534 kts | 56° |
| 2026-05-04 14:54 | 42.23668 | -71.24915 | 38926 ft | 533 kts | 56° |
| 2026-05-04 14:55 | 42.27625 | -71.16445 | 38928 ft | 533 kts | 56° |
| 2026-05-04 14:55 | 42.31571 | -71.07974 | 38917 ft | 532 kts | 56° |
| 2026-05-04 14:56 | 42.35432 | -70.99452 | 38915 ft | 533 kts | 62° |
| 2026-05-04 14:56 | 42.38557 | -70.90445 | 38919 ft | 533 kts | 65° |
| 2026-05-04 14:57 | 42.41544 | -70.81269 | 38911 ft | 533 kts | 65° |
| 2026-05-04 14:57 | 42.44517 | -70.72010 | 38897 ft | 533 kts | 65° |
| 2026-05-04 14:58 | 42.47455 | -70.62861 | 38897 ft | 533 kts | 65° |
| 2026-05-04 14:58 | 42.50410 | -70.53658 | 38887 ft | 533 kts | 66° |
| 2026-05-04 14:59 | 42.53367 | -70.44427 | 38909 ft | 535 kts | 66° |
| 2026-05-04 15:00 | 42.57795 | -70.30543 | 38904 ft | 534 kts | 66° |
| 2026-05-04 15:00 | 42.60736 | -70.21280 | 38898 ft | 534 kts | 66° |
| 2026-05-04 15:01 | 42.65145 | -70.07331 | 38894 ft | 537 kts | 66° |
| 2026-05-04 15:01 | 42.68082 | -69.98001 | 38894 ft | 537 kts | 66° |
| 2026-05-04 15:02 | 42.71010 | -69.88664 | 38898 ft | 537 kts | 66° |
| 2026-05-04 15:02 | 42.73933 | -69.79310 | 38897 ft | 539 kts | 66° |
| 2026-05-04 15:03 | 42.76860 | -69.69909 | 38897 ft | 540 kts | 66° |
| 2026-05-04 15:03 | 42.79778 | -69.60506 | 38898 ft | 539 kts | 66° |
| 2026-05-04 15:04 | 42.82684 | -69.51104 | 38886 ft | 538 kts | 67° |
| 2026-05-04 15:04 | 42.85586 | -69.41687 | 38895 ft | 540 kts | 67° |
| 2026-05-04 15:05 | 42.88486 | -69.32238 | 38895 ft | 540 kts | 67° |
| 2026-05-04 15:05 | 42.91377 | -69.22783 | 38894 ft | 540 kts | 67° |
| 2026-05-04 15:06 | 42.94260 | -69.13323 | 38890 ft | 541 kts | 67° |
| 2026-05-04 15:07 | 42.98583 | -68.99074 | 38900 ft | 542 kts | 67° |
| 2026-05-04 15:07 | 43.01457 | -68.89554 | 38917 ft | 542 kts | 67° |
| 2026-05-04 15:08 | 43.04315 | -68.80053 | 38889 ft | 540 kts | 67° |
| 2026-05-04 15:08 | 43.07146 | -68.70611 | 38892 ft | 541 kts | 67° |
| 2026-05-04 15:09 | 43.09992 | -68.61079 | 38892 ft | 541 kts | 68° |
| 2026-05-04 15:09 | 43.12831 | -68.51538 | 38889 ft | 541 kts | 68° |
| 2026-05-04 15:10 | 43.17071 | -68.37220 | 38892 ft | 541 kts | 68° |
| 2026-05-04 15:11 | 43.21299 | -68.22864 | 38894 ft | 543 kts | 68° |
| 2026-05-04 15:11 | 43.24116 | -68.13253 | 38895 ft | 543 kts | 68° |
| 2026-05-04 15:12 | 43.26922 | -68.03642 | 38893 ft | 543 kts | 68° |
| 2026-05-04 15:12 | 43.29719 | -67.94026 | 38891 ft | 542 kts | 68° |
| 2026-05-04 15:13 | 43.32507 | -67.84404 | 38890 ft | 542 kts | 68° |
| 2026-05-04 15:13 | 43.35291 | -67.74760 | 38889 ft | 544 kts | 68° |
| 2026-05-04 15:14 | 43.38074 | -67.65085 | 38890 ft | 544 kts | 68° |
| 2026-05-04 15:14 | 43.40848 | -67.55399 | 38887 ft | 544 kts | 68° |
| 2026-05-04 15:15 | 43.43615 | -67.45703 | 38885 ft | 544 kts | 68° |
| 2026-05-04 15:15 | 43.46353 | -67.36071 | 38890 ft | 545 kts | 68° |
| 2026-05-04 15:16 | 43.50478 | -67.21490 | 38886 ft | 545 kts | 69° |
| 2026-05-04 15:17 | 43.54584 | -67.06889 | 38885 ft | 545 kts | 69° |
| 2026-05-04 15:17 | 43.57884 | -66.97533 | 38887 ft | 542 kts | 55° |
| 2026-05-04 15:17 | 43.59960 | -66.93194 | 38893 ft | 542 kts | 54° |
| 2026-05-04 15:18 | 43.64268 | -66.84657 | 38879 ft | 542 kts | 53° |
| 2026-05-04 15:19 | 43.70802 | -66.71911 | 38866 ft | 542 kts | 53° |
| 2026-05-04 15:19 | 43.77298 | -66.59091 | 38871 ft | 542 kts | 53° |
| 2026-05-04 15:20 | 43.81606 | -66.50536 | 38872 ft | 542 kts | 53° |
| 2026-05-04 15:20 | 43.85913 | -66.41956 | 38874 ft | 542 kts | 53° |
| 2026-05-04 15:21 | 43.90208 | -66.33378 | 38865 ft | 541 kts | 53° |
| 2026-05-04 15:22 | 43.96624 | -66.20515 | 38878 ft | 540 kts | 54° |
| 2026-05-04 15:22 | 44.03021 | -66.07636 | 38871 ft | 540 kts | 54° |
| 2026-05-04 15:23 | 44.07275 | -65.99039 | 38867 ft | 539 kts | 54° |
| 2026-05-04 15:23 | 44.11519 | -65.90439 | 38865 ft | 539 kts | 54° |
| 2026-05-04 15:24 | 44.19960 | -65.73255 | 38844 ft | 539 kts | 54° |
| 2026-05-04 15:25 | 44.24187 | -65.64613 | 38844 ft | 539 kts | 54° |
| 2026-05-04 15:26 | 44.29830 | -65.53031 | 38828 ft | 539 kts | 54° |
| 2026-05-04 15:26 | 44.36136 | -65.40037 | 38822 ft | 538 kts | 54° |
| 2026-05-04 15:27 | 44.42419 | -65.27032 | 38810 ft | 538 kts | 54° |
| 2026-05-04 15:28 | 44.48662 | -65.14050 | 38814 ft | 538 kts | 54° |
| 2026-05-04 15:29 | 44.54920 | -65.00979 | 38816 ft | 538 kts | 54° |
| 2026-05-04 15:30 | 44.69461 | -64.70376 | 38785 ft | 538 kts | 55° |
| 2026-05-04 15:31 | 44.75663 | -64.57224 | 38772 ft | 538 kts | 55° |
| 2026-05-04 15:32 | 44.85957 | -64.35261 | 38749 ft | 537 kts | 55° |
| 2026-05-04 15:34 | 44.96157 | -64.13328 | 38730 ft | 534 kts | 56° |
| 2026-05-04 15:34 | 45.02251 | -64.00146 | 38719 ft | 534 kts | 56° |
| 2026-05-04 15:35 | 45.08297 | -63.87006 | 38716 ft | 534 kts | 56° |
| 2026-05-04 15:36 | 45.14356 | -63.73777 | 38703 ft | 535 kts | 56° |
| 2026-05-04 15:36 | 45.18399 | -63.64916 | 38696 ft | 536 kts | 56° |
| 2026-05-04 15:37 | 45.22444 | -63.56022 | 38696 ft | 536 kts | 56° |
| 2026-05-04 15:37 | 45.26479 | -63.47121 | 38696 ft | 536 kts | 56° |
| 2026-05-04 15:38 | 45.30505 | -63.38213 | 38672 ft | 536 kts | 56° |
| 2026-05-04 15:38 | 45.34525 | -63.29290 | 38664 ft | 536 kts | 56° |
| 2026-05-04 15:39 | 45.38539 | -63.20354 | 38663 ft | 536 kts | 56° |
| 2026-05-04 15:40 | 45.44542 | -63.06935 | 38650 ft | 535 kts | 56° |
| 2026-05-04 15:40 | 45.48528 | -62.97990 | 38628 ft | 534 kts | 57° |
| 2026-05-04 15:41 | 45.52511 | -62.89022 | 38630 ft | 537 kts | 57° |
| 2026-05-04 15:41 | 45.56502 | -62.80010 | 38630 ft | 538 kts | 57° |
| 2026-05-04 15:42 | 45.60485 | -62.70984 | 38618 ft | 538 kts | 57° |
| 2026-05-04 15:42 | 45.64464 | -62.61941 | 38620 ft | 537 kts | 57° |
| 2026-05-04 15:43 | 45.68434 | -62.52886 | 38625 ft | 537 kts | 57° |
| 2026-05-04 15:43 | 45.72363 | -62.43898 | 38614 ft | 536 kts | 57° |
| 2026-05-04 15:44 | 45.76308 | -62.34844 | 38603 ft | 536 kts | 57° |
| 2026-05-04 15:44 | 45.80247 | -62.25776 | 38600 ft | 536 kts | 57° |
| 2026-05-04 15:45 | 45.84177 | -62.16696 | 38574 ft | 535 kts | 57° |
| 2026-05-04 15:45 | 45.88095 | -62.07617 | 38595 ft | 535 kts | 57° |
| 2026-05-04 15:46 | 45.92009 | -61.98516 | 38595 ft | 536 kts | 57° |
| 2026-05-04 15:46 | 45.95918 | -61.89396 | 38595 ft | 536 kts | 58° |
| 2026-05-04 15:47 | 45.99812 | -61.80285 | 38578 ft | 534 kts | 58° |
| 2026-05-04 15:47 | 46.03693 | -61.71172 | 38570 ft | 534 kts | 58° |
| 2026-05-04 15:48 | 46.07568 | -61.62045 | 38559 ft | 534 kts | 58° |
| 2026-05-04 15:48 | 46.13358 | -61.48352 | 38537 ft | 533 kts | 58° |
| 2026-05-04 15:49 | 46.17209 | -61.39206 | 38536 ft | 533 kts | 58° |
| 2026-05-04 15:49 | 46.21047 | -61.30056 | 38525 ft | 534 kts | 58° |
| 2026-05-04 15:50 | 46.24910 | -61.20821 | 38516 ft | 540 kts | 58° |
| 2026-05-04 15:50 | 46.28775 | -61.11552 | 38499 ft | 543 kts | 58° |
| 2026-05-04 15:51 | 46.32664 | -61.02193 | 38499 ft | 543 kts | 58° |
| 2026-05-04 15:51 | 46.36548 | -60.92812 | 38486 ft | 543 kts | 58° |
| 2026-05-04 15:52 | 46.40424 | -60.83419 | 38449 ft | 543 kts | 58° |
| 2026-05-04 15:52 | 46.44289 | -60.74025 | 38446 ft | 542 kts | 59° |
| 2026-05-04 15:53 | 46.48147 | -60.64612 | 38425 ft | 543 kts | 59° |
| 2026-05-04 15:53 | 46.52001 | -60.55175 | 38391 ft | 543 kts | 59° |
| 2026-05-04 15:54 | 46.55826 | -60.45777 | 38371 ft | 538 kts | 59° |
| 2026-05-04 15:54 | 46.59613 | -60.36441 | 38374 ft | 535 kts | 59° |
| 2026-05-04 15:55 | 46.63377 | -60.27129 | 38387 ft | 534 kts | 59° |
| 2026-05-04 15:55 | 46.67138 | -60.17798 | 38391 ft | 535 kts | 60° |
| 2026-05-04 15:56 | 46.70896 | -60.08440 | 38395 ft | 536 kts | 60° |
| 2026-05-04 15:56 | 46.74649 | -59.99061 | 38403 ft | 536 kts | 60° |
| 2026-05-04 15:57 | 46.78393 | -59.89675 | 38404 ft | 536 kts | 60° |
| 2026-05-04 15:57 | 46.82141 | -59.80242 | 38402 ft | 538 kts | 60° |
| 2026-05-04 15:58 | 46.85894 | -59.70766 | 38394 ft | 538 kts | 60° |
| 2026-05-04 15:58 | 46.89639 | -59.61278 | 38383 ft | 539 kts | 60° |
| 2026-05-04 15:59 | 46.93374 | -59.51783 | 38385 ft | 539 kts | 60° |
| 2026-05-04 15:59 | 46.97106 | -59.42258 | 38371 ft | 540 kts | 60° |
| 2026-05-04 16:00 | 47.00835 | -59.32711 | 38376 ft | 540 kts | 60° |
| 2026-05-04 16:00 | 47.04552 | -59.23160 | 38362 ft | 539 kts | 61° |
| 2026-05-04 16:01 | 47.08248 | -59.13631 | 38362 ft | 536 kts | 61° |
| 2026-05-04 16:01 | 47.11924 | -59.04118 | 38351 ft | 536 kts | 61° |
| 2026-05-04 16:02 | 47.15590 | -58.94597 | 38335 ft | 536 kts | 61° |
| 2026-05-04 16:03 | 47.21083 | -58.80272 | 38321 ft | 536 kts | 62° |
| 2026-05-04 16:03 | 47.24725 | -58.70732 | 38311 ft | 534 kts | 62° |
| 2026-05-04 16:04 | 47.28373 | -58.61138 | 38312 ft | 538 kts | 62° |
| 2026-05-04 16:04 | 47.33838 | -58.46699 | 38297 ft | 537 kts | 62° |
| 2026-05-04 16:05 | 47.37463 | -58.37082 | 38276 ft | 537 kts | 62° |
| 2026-05-04 16:06 | 47.42873 | -58.22670 | 38269 ft | 537 kts | 62° |
| 2026-05-04 16:07 | 47.50060 | -58.03395 | 38255 ft | 534 kts | 63° |
| 2026-05-04 16:08 | 47.57195 | -57.84116 | 38245 ft | 534 kts | 63° |
| 2026-05-04 16:09 | 47.66079 | -57.59922 | 38219 ft | 534 kts | 64° |
| 2026-05-04 16:10 | 47.73137 | -57.40540 | 38213 ft | 533 kts | 64° |
| 2026-05-04 16:11 | 47.80120 | -57.21229 | 38195 ft | 530 kts | 64° |
| 2026-05-04 16:12 | 47.89920 | -56.93878 | 38165 ft | 527 kts | 64° |
| 2026-05-04 16:13 | 47.96790 | -56.74530 | 38119 ft | 529 kts | 64° |
| 2026-05-04 16:14 | 48.03647 | -56.55082 | 38101 ft | 529 kts | 65° |
| 2026-05-04 16:16 | 48.12162 | -56.30722 | 38087 ft | 528 kts | 65° |
| 2026-05-04 16:17 | 48.20601 | -56.06354 | 38117 ft | 527 kts | 65° |
| 2026-05-04 16:18 | 48.27309 | -55.86818 | 38133 ft | 528 kts | 66° |
| 2026-05-04 16:19 | 48.35689 | -55.62205 | 38146 ft | 529 kts | 66° |
| 2026-05-04 16:20 | 48.44024 | -55.37490 | 38168 ft | 530 kts | 66° |
| 2026-05-04 16:22 | 48.52317 | -55.12658 | 38205 ft | 531 kts | 67° |
| 2026-05-04 16:23 | 48.62203 | -54.82738 | 38237 ft | 533 kts | 68° |
| 2026-05-04 16:25 | 48.72057 | -54.52559 | 38265 ft | 533 kts | 68° |
| 2026-05-04 16:26 | 48.83432 | -54.17270 | 38303 ft | 531 kts | 68° |
| 2026-05-04 16:28 | 48.91469 | -53.92035 | 38307 ft | 529 kts | 69° |
| 2026-05-04 16:29 | 49.02586 | -53.56700 | 38356 ft | 528 kts | 69° |
| 2026-05-04 16:31 | 49.10441 | -53.31424 | 38578 ft | 528 kts | 69° |
| 2026-05-04 16:31 | 49.15113 | -53.16278 | 39120 ft | 522 kts | 69° |
| 2026-05-04 16:32 | 49.19730 | -53.01204 | 39412 ft | 523 kts | 69° |
| 2026-05-04 16:33 | 49.22800 | -52.91132 | 39589 ft | 523 kts | 69° |
| 2026-05-04 16:33 | 49.25852 | -52.81075 | 39635 ft | 525 kts | 69° |
| 2026-05-04 16:34 | 49.28915 | -52.70950 | 39902 ft | 523 kts | 69° |
| 2026-05-04 16:34 | 49.30461 | -52.65822 | 39983 ft | 523 kts | 69° |
| 2026-05-04 16:35 | 49.35007 | -52.50676 | 40225 ft | 524 kts | 70° |
| 2026-05-04 16:35 | 49.39551 | -52.35445 | 40466 ft | 523 kts | 70° |
| 2026-05-04 16:36 | 49.44077 | -52.20176 | 40478 ft | 524 kts | 70° |
| 2026-05-04 16:37 | 49.48583 | -52.04883 | 40500 ft | 523 kts | 70° |
| 2026-05-04 16:38 | 49.54215 | -51.84272 | 40490 ft | 521 kts | 73° |
| 2026-05-04 16:39 | 49.60816 | -51.58254 | 40528 ft | 522 kts | 73° |
| 2026-05-04 16:40 | 49.66136 | -51.37435 | 40531 ft | 522 kts | 73° |
| 2026-05-04 16:41 | 49.72734 | -51.11331 | 40538 ft | 521 kts | 73° |
| 2026-05-04 16:43 | 49.79253 | -50.85232 | 40562 ft | 520 kts | 73° |
| 2026-05-04 16:43 | 49.83139 | -50.69524 | 40560 ft | 521 kts | 73° |
| 2026-05-04 16:45 | 49.90829 | -50.38119 | 40583 ft | 519 kts | 74° |
| 2026-05-04 16:46 | 49.97158 | -50.11930 | 40595 ft | 517 kts | 74° |
| 2026-05-04 16:47 | 50.02208 | -49.91090 | 40614 ft | 518 kts | 73° |
| 2026-05-04 16:48 | 50.07485 | -49.70246 | 40623 ft | 518 kts | 73° |
| 2026-05-04 16:49 | 50.12686 | -49.49337 | 40637 ft | 517 kts | 73° |
| 2026-05-04 16:50 | 50.17403 | -49.30170 | 40641 ft | 517 kts | 74° |
| 2026-05-04 16:51 | 50.21672 | -49.12680 | 40653 ft | 517 kts | 74° |
| 2026-05-04 16:52 | 50.26754 | -48.91681 | 40636 ft | 516 kts | 75° |
| 2026-05-04 16:53 | 50.30532 | -48.75946 | 40680 ft | 515 kts | 75° |
| 2026-05-04 16:54 | 50.35532 | -48.54934 | 40686 ft | 515 kts | 75° |
| 2026-05-04 16:55 | 50.42541 | -48.25133 | 40692 ft | 514 kts | 75° |
| 2026-05-04 16:56 | 50.48661 | -47.98767 | 40691 ft | 514 kts | 75° |
| 2026-05-04 16:57 | 50.52293 | -47.82971 | 40718 ft | 512 kts | 76° |
| 2026-05-04 16:58 | 50.57092 | -47.61906 | 40726 ft | 511 kts | 76° |
| 2026-05-04 17:00 | 50.64217 | -47.30246 | 40739 ft | 511 kts | 76° |
| 2026-05-04 17:01 | 50.70085 | -47.03812 | 40743 ft | 509 kts | 76° |
| 2026-05-04 17:02 | 50.74688 | -46.82829 | 40746 ft | 507 kts | 76° |
| 2026-05-04 17:03 | 50.78124 | -46.67026 | 40725 ft | 507 kts | 76° |
| 2026-05-04 17:03 | 50.81536 | -46.51210 | 40769 ft | 506 kts | 76° |
| 2026-05-04 17:04 | 50.86048 | -46.30115 | 40774 ft | 506 kts | 76° |
| 2026-05-04 17:05 | 50.90523 | -46.08967 | 40794 ft | 507 kts | 76° |
| 2026-05-04 17:06 | 50.93863 | -45.93039 | 40801 ft | 508 kts | 77° |
| 2026-05-04 17:07 | 50.96806 | -45.78901 | 40810 ft | 508 kts | 77° |
| 2026-05-04 17:07 | 50.99379 | -45.66453 | 40813 ft | 508 kts | 76° |
| 2026-05-04 17:08 | 51.02667 | -45.50434 | 40823 ft | 509 kts | 76° |
| 2026-05-04 17:09 | 51.04854 | -45.39704 | 40837 ft | 511 kts | 76° |
| 2026-05-04 17:09 | 51.07034 | -45.28959 | 40848 ft | 511 kts | 76° |
| 2026-05-04 17:10 | 51.12444 | -45.02020 | 40885 ft | 515 kts | 76° |
| 2026-05-04 17:11 | 51.14603 | -44.91168 | 40884 ft | 514 kts | 76° |
| 2026-05-04 17:12 | 51.17824 | -44.74864 | 40883 ft | 514 kts | 76° |
| 2026-05-04 17:13 | 51.23171 | -44.47481 | 40907 ft | 518 kts | 76° |
| 2026-05-04 17:14 | 51.27417 | -44.25455 | 40938 ft | 520 kts | 76° |
| 2026-05-04 17:15 | 51.30581 | -44.08862 | 40945 ft | 521 kts | 76° |
| 2026-05-04 17:16 | 51.34774 | -43.86673 | 40974 ft | 521 kts | 76° |
| 2026-05-04 17:17 | 51.38924 | -43.64434 | 40986 ft | 522 kts | 76° |
| 2026-05-04 17:18 | 51.43042 | -43.42110 | 41007 ft | 523 kts | 76° |
| 2026-05-04 17:19 | 51.47117 | -43.19727 | 41018 ft | 525 kts | 75° |
| 2026-05-04 17:20 | 51.51172 | -42.97205 | 41037 ft | 526 kts | 75° |
| 2026-05-04 17:20 | 51.54185 | -42.80277 | 41049 ft | 525 kts | 76° |
| 2026-05-04 17:21 | 51.58161 | -42.57682 | 41059 ft | 525 kts | 76° |
| 2026-05-04 17:22 | 51.60133 | -42.46378 | 41066 ft | 525 kts | 76° |
| 2026-05-04 17:23 | 51.64035 | -42.23789 | 41079 ft | 526 kts | 76° |
| 2026-05-04 17:24 | 51.66947 | -42.06734 | 41089 ft | 527 kts | 76° |
| 2026-05-04 17:25 | 51.70795 | -41.83944 | 41111 ft | 527 kts | 76° |
| 2026-05-04 17:26 | 51.74602 | -41.61086 | 41121 ft | 528 kts | 75° |
| 2026-05-04 17:27 | 51.79302 | -41.32449 | 41143 ft | 528 kts | 75° |
| 2026-05-04 17:28 | 51.83013 | -41.09485 | 41160 ft | 528 kts | 75° |
| 2026-05-04 17:29 | 51.88495 | -40.74968 | 41165 ft | 529 kts | 75° |
| 2026-05-04 17:31 | 51.92983 | -40.46170 | 41193 ft | 529 kts | 75° |
| 2026-05-04 17:32 | 51.97411 | -40.17241 | 41208 ft | 529 kts | 75° |
| 2026-05-04 17:33 | 52.01457 | -39.94350 | 41216 ft | 526 kts | 66° |
| 2026-05-04 17:34 | 52.06947 | -39.72327 | 41230 ft | 524 kts | 65° |
| 2026-05-04 17:35 | 52.13791 | -39.44865 | 41240 ft | 524 kts | 65° |
| 2026-05-04 17:36 | 52.16498 | -39.33862 | 41251 ft | 522 kts | 65° |
| 2026-05-04 17:36 | 52.19180 | -39.22905 | 41252 ft | 520 kts | 65° |
| 2026-05-04 17:37 | 52.21845 | -39.11970 | 41257 ft | 519 kts | 65° |
| 2026-05-04 17:37 | 52.24503 | -39.01009 | 41265 ft | 519 kts | 65° |
| 2026-05-04 17:38 | 52.27148 | -38.90047 | 41267 ft | 518 kts | 65° |
| 2026-05-04 17:38 | 52.29746 | -38.79213 | 41270 ft | 514 kts | 65° |
| 2026-05-04 17:39 | 52.33636 | -38.62909 | 41275 ft | 513 kts | 65° |
| 2026-05-04 17:39 | 52.36218 | -38.52021 | 41276 ft | 514 kts | 65° |
| 2026-05-04 17:40 | 52.38786 | -38.41129 | 41277 ft | 512 kts | 65° |
| 2026-05-04 17:40 | 52.41339 | -38.30247 | 41300 ft | 511 kts | 65° |
| 2026-05-04 17:41 | 52.43878 | -38.19374 | 41283 ft | 511 kts | 65° |
| 2026-05-04 17:41 | 52.46409 | -38.08478 | 41286 ft | 511 kts | 65° |
| 2026-05-04 17:42 | 52.48929 | -37.97578 | 41302 ft | 511 kts | 65° |
| 2026-05-04 17:42 | 52.51440 | -37.86654 | 41293 ft | 511 kts | 65° |
| 2026-05-04 17:43 | 52.53941 | -37.75722 | 41312 ft | 511 kts | 65° |
| 2026-05-04 17:43 | 52.56430 | -37.64785 | 41314 ft | 511 kts | 65° |
| 2026-05-04 17:44 | 52.58910 | -37.53828 | 41312 ft | 512 kts | 65° |
| 2026-05-04 17:44 | 52.61385 | -37.42840 | 41312 ft | 512 kts | 65° |
| 2026-05-04 17:45 | 52.63848 | -37.31846 | 41312 ft | 512 kts | 65° |
| 2026-05-04 17:45 | 52.65889 | -37.22690 | 41314 ft | 512 kts | 65° |
| 2026-05-04 17:46 | 52.68334 | -37.11672 | 41345 ft | 512 kts | 65° |
| 2026-05-04 17:46 | 52.70769 | -37.00636 | 41333 ft | 512 kts | 66° |
| 2026-05-04 17:47 | 52.73190 | -36.89609 | 41333 ft | 511 kts | 66° |
| 2026-05-04 17:47 | 52.75603 | -36.78557 | 41333 ft | 511 kts | 66° |
| 2026-05-04 17:48 | 52.78004 | -36.67503 | 41333 ft | 512 kts | 66° |
| 2026-05-04 17:48 | 52.80393 | -36.56444 | 41338 ft | 511 kts | 66° |
| 2026-05-04 17:49 | 52.82768 | -36.45389 | 41344 ft | 510 kts | 66° |
| 2026-05-04 17:49 | 52.85132 | -36.34324 | 41344 ft | 510 kts | 66° |
| 2026-05-04 17:50 | 52.87486 | -36.23250 | 41346 ft | 510 kts | 66° |
| 2026-05-04 17:50 | 52.89830 | -36.12160 | 41352 ft | 509 kts | 66° |
| 2026-05-04 17:51 | 52.92158 | -36.01081 | 41355 ft | 509 kts | 66° |
| 2026-05-04 17:51 | 52.94474 | -35.90002 | 41355 ft | 509 kts | 67° |
| 2026-05-04 17:52 | 52.96782 | -35.78905 | 41357 ft | 509 kts | 67° |
| 2026-05-04 17:52 | 52.99062 | -35.67878 | 41377 ft | 509 kts | 67° |
| 2026-05-04 17:53 | 53.01345 | -35.56774 | 41359 ft | 508 kts | 67° |
| 2026-05-04 17:53 | 53.03615 | -35.45668 | 41360 ft | 508 kts | 67° |
| 2026-05-04 17:54 | 53.05876 | -35.34547 | 41361 ft | 508 kts | 67° |
| 2026-05-04 17:54 | 53.08127 | -35.23417 | 41368 ft | 508 kts | 68° |
| 2026-05-04 17:55 | 53.10366 | -35.12280 | 41374 ft | 508 kts | 68° |
| 2026-05-04 17:55 | 53.12595 | -35.01127 | 41369 ft | 508 kts | 68° |
| 2026-05-04 17:56 | 53.14814 | -34.89962 | 41371 ft | 508 kts | 68° |
| 2026-05-04 17:56 | 53.17020 | -34.78795 | 41370 ft | 508 kts | 68° |
| 2026-05-04 17:57 | 53.19219 | -34.67608 | 41371 ft | 507 kts | 68° |
| 2026-05-04 17:57 | 53.21405 | -34.56414 | 41385 ft | 507 kts | 69° |
| 2026-05-04 17:58 | 53.23580 | -34.45216 | 41371 ft | 507 kts | 69° |
| 2026-05-04 17:58 | 53.25743 | -34.34008 | 41392 ft | 507 kts | 69° |
| 2026-05-04 17:59 | 53.27883 | -34.22861 | 41386 ft | 507 kts | 69° |
| 2026-05-04 18:00 | 53.31098 | -34.05986 | 41381 ft | 508 kts | 69° |
| 2026-05-04 18:00 | 53.33227 | -33.94724 | 41386 ft | 508 kts | 69° |
| 2026-05-04 18:01 | 53.35347 | -33.83446 | 41386 ft | 508 kts | 69° |
| 2026-05-04 18:01 | 53.37455 | -33.72165 | 41391 ft | 508 kts | 70° |
| 2026-05-04 18:02 | 53.40603 | -33.55190 | 41384 ft | 509 kts | 70° |
| 2026-05-04 18:02 | 53.42690 | -33.43850 | 41383 ft | 509 kts | 70° |
| 2026-05-04 18:03 | 53.44765 | -33.32500 | 41390 ft | 509 kts | 70° |
| 2026-05-04 18:03 | 53.46830 | -33.21140 | 41391 ft | 509 kts | 70° |
| 2026-05-04 18:04 | 53.48886 | -33.09762 | 41386 ft | 509 kts | 70° |
| 2026-05-04 18:05 | 53.51948 | -32.92675 | 41389 ft | 509 kts | 70° |
| 2026-05-04 18:05 | 53.53976 | -32.81275 | 41388 ft | 509 kts | 70° |
| 2026-05-04 18:06 | 53.56998 | -32.64149 | 41387 ft | 509 kts | 71° |
| 2026-05-04 18:06 | 53.59000 | -32.52708 | 41389 ft | 509 kts | 71° |
| 2026-05-04 18:07 | 53.60990 | -32.41263 | 41390 ft | 509 kts | 71° |
| 2026-05-04 18:07 | 53.62970 | -32.29806 | 41391 ft | 509 kts | 71° |
| 2026-05-04 18:08 | 53.64937 | -32.18349 | 41390 ft | 509 kts | 71° |
| 2026-05-04 18:08 | 53.66895 | -32.06873 | 41390 ft | 509 kts | 71° |
| 2026-05-04 18:09 | 53.70761 | -31.83982 | 41391 ft | 509 kts | 71° |
| 2026-05-04 18:10 | 53.72685 | -31.72478 | 41391 ft | 509 kts | 72° |
| 2026-05-04 18:10 | 53.74599 | -31.60959 | 41386 ft | 509 kts | 72° |
| 2026-05-04 18:11 | 53.76501 | -31.49433 | 41396 ft | 509 kts | 72° |
| 2026-05-04 18:11 | 53.78390 | -31.37906 | 41387 ft | 509 kts | 72° |
| 2026-05-04 18:12 | 53.79025 | -31.34013 | 41394 ft | 509 kts | 72° |
| 2026-05-04 18:12 | 53.79971 | -31.28199 | 41392 ft | 509 kts | 72° |
| 2026-05-04 18:13 | 53.81840 | -31.16656 | 41395 ft | 509 kts | 72° |
| 2026-05-04 18:14 | 53.84623 | -30.99315 | 41388 ft | 509 kts | 72° |
| 2026-05-04 18:14 | 53.86465 | -30.87737 | 41383 ft | 509 kts | 73° |
| 2026-05-04 18:15 | 53.90115 | -30.64557 | 41390 ft | 509 kts | 73° |
| 2026-05-04 18:16 | 53.91925 | -30.52940 | 41389 ft | 509 kts | 73° |
| 2026-05-04 18:16 | 53.93722 | -30.41326 | 41386 ft | 509 kts | 73° |
| 2026-05-04 18:17 | 53.96400 | -30.23862 | 41397 ft | 509 kts | 73° |
| 2026-05-04 18:18 | 53.99050 | -30.06398 | 41383 ft | 509 kts | 73° |
| 2026-05-04 18:18 | 54.00797 | -29.94736 | 41382 ft | 509 kts | 74° |
| 2026-05-04 18:19 | 54.03305 | -29.77165 | 41382 ft | 509 kts | 75° |
| 2026-05-04 18:19 | 54.04955 | -29.65450 | 41379 ft | 509 kts | 75° |
| 2026-05-04 18:20 | 54.06604 | -29.53718 | 41379 ft | 509 kts | 75° |
| 2026-05-04 18:20 | 54.08243 | -29.41991 | 41379 ft | 509 kts | 75° |
| 2026-05-04 18:21 | 54.09874 | -29.30239 | 41379 ft | 509 kts | 75° |
| 2026-05-04 18:21 | 54.11492 | -29.18483 | 41383 ft | 509 kts | 75° |
| 2026-05-04 18:22 | 54.13097 | -29.06728 | 41374 ft | 509 kts | 75° |
| 2026-05-04 18:22 | 54.14692 | -28.94949 | 41377 ft | 509 kts | 75° |
| 2026-05-04 18:23 | 54.16264 | -28.83247 | 41375 ft | 509 kts | 75° |
| 2026-05-04 18:23 | 54.17834 | -28.71468 | 41377 ft | 509 kts | 75° |
| 2026-05-04 18:24 | 54.19395 | -28.59665 | 41372 ft | 509 kts | 76° |
| 2026-05-04 18:24 | 54.20943 | -28.47859 | 41373 ft | 509 kts | 76° |
| 2026-05-04 18:25 | 54.22478 | -28.36053 | 41377 ft | 509 kts | 76° |
| 2026-05-04 18:25 | 54.24003 | -28.24235 | 41373 ft | 509 kts | 76° |
| 2026-05-04 18:26 | 54.25517 | -28.12395 | 41369 ft | 509 kts | 76° |
| 2026-05-04 18:26 | 54.27018 | -28.00558 | 41371 ft | 509 kts | 76° |
| 2026-05-04 18:27 | 54.28508 | -27.88713 | 41366 ft | 509 kts | 76° |
| 2026-05-04 18:27 | 54.29987 | -27.76849 | 41368 ft | 509 kts | 76° |
| 2026-05-04 18:28 | 54.31453 | -27.64992 | 41377 ft | 509 kts | 76° |
| 2026-05-04 18:28 | 54.32901 | -27.53183 | 41368 ft | 509 kts | 77° |
| 2026-05-04 18:29 | 54.34344 | -27.41303 | 41368 ft | 509 kts | 77° |
| 2026-05-04 18:29 | 54.35776 | -27.29415 | 41368 ft | 509 kts | 77° |
| 2026-05-04 18:30 | 54.37901 | -27.11568 | 41379 ft | 509 kts | 77° |
| 2026-05-04 18:31 | 54.39305 | -26.99647 | 41363 ft | 509 kts | 77° |
| 2026-05-04 18:31 | 54.40695 | -26.87735 | 41363 ft | 509 kts | 77° |
| 2026-05-04 18:32 | 54.42073 | -26.75819 | 41364 ft | 509 kts | 77° |
| 2026-05-04 18:32 | 54.43440 | -26.63890 | 41362 ft | 509 kts | 77° |
| 2026-05-04 18:33 | 54.44795 | -26.51948 | 41362 ft | 509 kts | 77° |
| 2026-05-04 18:33 | 54.45913 | -26.42021 | 41360 ft | 509 kts | 77° |
| 2026-05-04 18:34 | 54.47246 | -26.30067 | 41355 ft | 509 kts | 78° |
| 2026-05-04 18:34 | 54.48568 | -26.18105 | 41360 ft | 509 kts | 78° |
| 2026-05-04 18:35 | 54.49877 | -26.06143 | 41360 ft | 509 kts | 78° |
| 2026-05-04 18:35 | 54.51176 | -25.94164 | 41355 ft | 509 kts | 78° |
| 2026-05-04 18:36 | 54.52462 | -25.82186 | 41356 ft | 509 kts | 78° |
| 2026-05-04 18:36 | 54.53735 | -25.70205 | 41354 ft | 509 kts | 78° |
| 2026-05-04 18:37 | 54.54998 | -25.58207 | 41357 ft | 509 kts | 78° |
| 2026-05-04 18:37 | 54.56247 | -25.46214 | 41354 ft | 509 kts | 78° |
| 2026-05-04 18:38 | 54.57486 | -25.34204 | 41350 ft | 509 kts | 78° |
| 2026-05-04 18:38 | 54.58712 | -25.22193 | 41349 ft | 509 kts | 78° |
| 2026-05-04 18:39 | 54.59925 | -25.10181 | 41349 ft | 509 kts | 78° |
| 2026-05-04 18:39 | 54.61128 | -24.98147 | 41346 ft | 509 kts | 79° |
| 2026-05-04 18:40 | 54.62310 | -24.86196 | 41349 ft | 509 kts | 79° |
| 2026-05-04 18:40 | 54.63488 | -24.74160 | 41349 ft | 509 kts | 79° |
| 2026-05-04 18:41 | 54.64654 | -24.62121 | 41342 ft | 509 kts | 79° |
| 2026-05-04 18:41 | 54.65808 | -24.50076 | 41341 ft | 509 kts | 79° |
| 2026-05-04 18:42 | 54.66951 | -24.38011 | 41342 ft | 509 kts | 79° |
| 2026-05-04 18:42 | 54.68081 | -24.25948 | 41343 ft | 508 kts | 79° |
| 2026-05-04 18:43 | 54.69199 | -24.13882 | 41339 ft | 508 kts | 79° |
| 2026-05-04 18:43 | 54.70305 | -24.01812 | 41337 ft | 509 kts | 79° |
| 2026-05-04 18:44 | 54.71398 | -23.89738 | 41334 ft | 508 kts | 79° |
| 2026-05-04 18:44 | 54.72479 | -23.77662 | 41332 ft | 508 kts | 79° |
| 2026-05-04 18:45 | 54.73548 | -23.65572 | 41334 ft | 508 kts | 80° |
| 2026-05-04 18:45 | 54.74605 | -23.53483 | 41330 ft | 508 kts | 80° |
| 2026-05-04 18:46 | 54.75650 | -23.41392 | 41334 ft | 508 kts | 80° |
| 2026-05-04 18:46 | 54.76683 | -23.29294 | 41332 ft | 508 kts | 80° |
| 2026-05-04 18:47 | 54.77704 | -23.17179 | 41329 ft | 508 kts | 80° |
| 2026-05-04 18:47 | 54.78706 | -23.05150 | 41323 ft | 508 kts | 80° |
| 2026-05-04 18:48 | 54.79703 | -22.93034 | 41322 ft | 508 kts | 80° |
| 2026-05-04 18:48 | 54.80687 | -22.80916 | 41319 ft | 508 kts | 81° |
| 2026-05-04 18:49 | 54.81659 | -22.68789 | 41317 ft | 508 kts | 81° |
| 2026-05-04 18:49 | 54.82620 | -22.56653 | 41314 ft | 508 kts | 81° |
| 2026-05-04 18:50 | 54.83568 | -22.44509 | 41314 ft | 508 kts | 81° |
| 2026-05-04 18:50 | 54.84505 | -22.32358 | 41319 ft | 508 kts | 81° |
| 2026-05-04 18:51 | 54.85429 | -22.20208 | 41315 ft | 508 kts | 81° |
| 2026-05-04 18:51 | 54.86340 | -22.08054 | 41315 ft | 508 kts | 81° |
| 2026-05-04 18:52 | 54.87240 | -21.95891 | 41308 ft | 508 kts | 81° |
| 2026-05-04 18:52 | 54.88128 | -21.83721 | 41309 ft | 508 kts | 81° |
| 2026-05-04 18:53 | 54.89003 | -21.71552 | 41308 ft | 508 kts | 81° |
| 2026-05-04 18:53 | 54.89866 | -21.59380 | 41304 ft | 508 kts | 81° |
| 2026-05-04 18:54 | 54.90716 | -21.47204 | 41306 ft | 507 kts | 82° |
| 2026-05-04 18:54 | 54.91548 | -21.35115 | 41300 ft | 507 kts | 82° |
| 2026-05-04 18:55 | 54.92374 | -21.22938 | 41301 ft | 507 kts | 82° |
| 2026-05-04 18:55 | 54.93590 | -21.04659 | 41292 ft | 508 kts | 82° |
| 2026-05-04 18:56 | 54.94386 | -20.92458 | 41292 ft | 508 kts | 82° |
| 2026-05-04 18:56 | 54.95169 | -20.80255 | 41296 ft | 508 kts | 82° |
| 2026-05-04 18:57 | 54.95941 | -20.68039 | 41295 ft | 508 kts | 82° |
| 2026-05-04 18:57 | 54.96700 | -20.55829 | 41290 ft | 508 kts | 82° |
| 2026-05-04 18:58 | 54.97447 | -20.43610 | 41292 ft | 508 kts | 82° |
| 2026-05-04 18:58 | 54.98182 | -20.31377 | 41283 ft | 508 kts | 83° |
| 2026-05-04 18:59 | 54.98904 | -20.19155 | 41286 ft | 508 kts | 83° |
| 2026-05-04 18:59 | 54.99615 | -20.06913 | 41277 ft | 508 kts | 83° |
| 2026-05-04 19:00 | 55.00275 | -19.94662 | 41288 ft | 509 kts | 85° |
| 2026-05-04 19:00 | 55.00515 | -19.82347 | 41288 ft | 509 kts | 88° |
| 2026-05-04 19:01 | 55.00637 | -19.70000 | 41280 ft | 509 kts | 88° |
| 2026-05-04 19:01 | 55.00803 | -19.57686 | 41270 ft | 509 kts | 87° |
| 2026-05-04 19:02 | 55.01001 | -19.45345 | 41281 ft | 509 kts | 87° |
| 2026-05-04 19:02 | 55.01196 | -19.33030 | 41267 ft | 509 kts | 87° |
| 2026-05-04 19:03 | 55.01378 | -19.20703 | 41263 ft | 509 kts | 87° |
| 2026-05-04 19:03 | 55.01545 | -19.08385 | 41261 ft | 509 kts | 87° |
| 2026-05-04 19:04 | 55.01697 | -18.96145 | 41260 ft | 509 kts | 87° |
| 2026-05-04 19:04 | 55.01839 | -18.83825 | 41266 ft | 509 kts | 88° |
| 2026-05-04 19:05 | 55.01967 | -18.71504 | 41263 ft | 509 kts | 88° |
| 2026-05-04 19:05 | 55.02084 | -18.59176 | 41252 ft | 509 kts | 88° |
| 2026-05-04 19:06 | 55.02188 | -18.46845 | 41255 ft | 509 kts | 88° |
| 2026-05-04 19:06 | 55.02280 | -18.34516 | 41249 ft | 509 kts | 88° |
| 2026-05-04 19:07 | 55.02359 | -18.22185 | 41252 ft | 509 kts | 88° |
| 2026-05-04 19:07 | 55.02426 | -18.09840 | 41249 ft | 509 kts | 88° |
| 2026-05-04 19:08 | 55.02480 | -17.97508 | 41243 ft | 509 kts | 88° |
| 2026-05-04 19:08 | 55.02522 | -17.85168 | 41243 ft | 509 kts | 88° |
| 2026-05-04 19:09 | 55.02551 | -17.72831 | 41246 ft | 509 kts | 88° |
| 2026-05-04 19:09 | 55.02568 | -17.60493 | 41234 ft | 509 kts | 89° |
| 2026-05-04 19:10 | 55.02572 | -17.48170 | 41235 ft | 509 kts | 89° |
| 2026-05-04 19:10 | 55.02564 | -17.35838 | 41234 ft | 508 kts | 89° |
| 2026-05-04 19:11 | 55.02544 | -17.23513 | 41231 ft | 508 kts | 89° |
| 2026-05-04 19:11 | 55.02511 | -17.11197 | 41230 ft | 509 kts | 89° |
| 2026-05-04 19:12 | 55.02438 | -16.92710 | 41230 ft | 509 kts | 89° |
| 2026-05-04 19:13 | 55.02374 | -16.80387 | 41231 ft | 509 kts | 89° |
| 2026-05-04 19:13 | 55.02297 | -16.68057 | 41231 ft | 508 kts | 89° |
| 2026-05-04 19:14 | 55.02208 | -16.55739 | 41228 ft | 508 kts | 89° |
| 2026-05-04 19:14 | 55.02107 | -16.43410 | 41227 ft | 509 kts | 90° |
| 2026-05-04 19:15 | 55.01993 | -16.31094 | 41222 ft | 509 kts | 90° |
| 2026-05-04 19:15 | 55.01866 | -16.18765 | 41222 ft | 509 kts | 90° |
| 2026-05-04 19:16 | 55.01728 | -16.06528 | 41219 ft | 509 kts | 90° |
| 2026-05-04 19:16 | 55.01577 | -15.94213 | 41219 ft | 508 kts | 90° |
| 2026-05-04 19:17 | 55.01414 | -15.81904 | 41214 ft | 508 kts | 90° |
| 2026-05-04 19:17 | 55.01238 | -15.69602 | 41211 ft | 508 kts | 90° |
| 2026-05-04 19:18 | 55.01050 | -15.57296 | 41212 ft | 508 kts | 90° |
| 2026-05-04 19:18 | 55.00849 | -15.44981 | 41215 ft | 508 kts | 90° |
| 2026-05-04 19:19 | 55.00636 | -15.32687 | 41203 ft | 508 kts | 91° |
| 2026-05-04 19:19 | 55.00410 | -15.20389 | 41195 ft | 508 kts | 91° |
| 2026-05-04 19:20 | 55.00173 | -15.08112 | 41205 ft | 508 kts | 91° |
| 2026-05-04 19:20 | 54.99940 | -14.95812 | 41193 ft | 508 kts | 90° |
| 2026-05-04 19:21 | 54.99960 | -14.83545 | 41202 ft | 507 kts | 88° |
| 2026-05-04 19:21 | 55.00044 | -14.73316 | 41192 ft | 507 kts | 88° |
| 2026-05-04 19:22 | 55.00103 | -14.61030 | 41197 ft | 507 kts | 89° |
| 2026-05-04 19:22 | 55.00117 | -14.48739 | 41189 ft | 507 kts | 89° |
| 2026-05-04 19:23 | 55.00107 | -14.36462 | 41189 ft | 507 kts | 89° |
| 2026-05-04 19:23 | 55.00085 | -14.24177 | 41184 ft | 507 kts | 89° |
| 2026-05-04 19:24 | 55.00052 | -14.11892 | 41183 ft | 507 kts | 89° |
| 2026-05-04 19:24 | 54.99781 | -13.99618 | 41191 ft | 508 kts | 98° |
| 2026-05-04 19:25 | 54.98405 | -13.87553 | 41185 ft | 508 kts | 102° |
| 2026-05-04 19:25 | 54.96806 | -13.75582 | 41182 ft | 507 kts | 103° |
| 2026-05-04 19:26 | 54.95170 | -13.63649 | 41174 ft | 507 kts | 103° |
| 2026-05-04 19:26 | 54.93548 | -13.51794 | 41190 ft | 507 kts | 103° |
| 2026-05-04 19:27 | 54.91916 | -13.39871 | 41179 ft | 507 kts | 103° |
| 2026-05-04 19:27 | 54.90275 | -13.27948 | 41164 ft | 507 kts | 103° |
| 2026-05-04 19:28 | 54.88620 | -13.16030 | 41177 ft | 507 kts | 103° |
| 2026-05-04 19:28 | 54.86954 | -13.04125 | 41170 ft | 507 kts | 103° |
| 2026-05-04 19:29 | 54.85277 | -12.92236 | 41170 ft | 507 kts | 103° |
| 2026-05-04 19:29 | 54.83590 | -12.80365 | 41160 ft | 507 kts | 103° |
| 2026-05-04 19:30 | 54.81893 | -12.68526 | 41161 ft | 506 kts | 103° |
| 2026-05-04 19:30 | 54.80186 | -12.56697 | 41172 ft | 506 kts | 104° |
| 2026-05-04 19:31 | 54.78467 | -12.44879 | 41166 ft | 506 kts | 104° |
| 2026-05-04 19:31 | 54.76736 | -12.33066 | 41160 ft | 506 kts | 104° |
| 2026-05-04 19:32 | 54.74996 | -12.21283 | 41161 ft | 506 kts | 104° |
| 2026-05-04 19:32 | 54.73245 | -12.09507 | 41159 ft | 506 kts | 104° |
| 2026-05-04 19:33 | 54.71477 | -11.97710 | 41159 ft | 506 kts | 104° |
| 2026-05-04 19:33 | 54.69703 | -11.85952 | 41157 ft | 506 kts | 104° |
| 2026-05-04 19:34 | 54.67915 | -11.74196 | 41152 ft | 505 kts | 104° |
| 2026-05-04 19:34 | 54.66119 | -11.62467 | 41151 ft | 504 kts | 104° |
| 2026-05-04 19:35 | 54.64314 | -11.50763 | 41151 ft | 504 kts | 105° |
| 2026-05-04 19:35 | 54.62498 | -11.39077 | 41146 ft | 504 kts | 105° |
| 2026-05-04 19:36 | 54.60670 | -11.27389 | 41150 ft | 504 kts | 105° |
| 2026-05-04 19:36 | 54.58830 | -11.15710 | 41145 ft | 505 kts | 105° |
| 2026-05-04 19:37 | 54.56980 | -11.04049 | 41145 ft | 505 kts | 105° |
| 2026-05-04 19:37 | 54.55131 | -10.92478 | 41148 ft | 504 kts | 105° |
| 2026-05-04 19:38 | 54.53258 | -10.80831 | 41147 ft | 504 kts | 105° |
| 2026-05-04 19:38 | 54.51375 | -10.69207 | 41139 ft | 504 kts | 105° |
| 2026-05-04 19:39 | 54.49484 | -10.57612 | 41157 ft | 503 kts | 105° |
| 2026-05-04 19:39 | 54.47630 | -10.46315 | 41139 ft | 503 kts | 105° |
| 2026-05-04 19:40 | 54.45720 | -10.34760 | 41137 ft | 503 kts | 105° |
| 2026-05-04 19:40 | 54.43797 | -10.23203 | 41152 ft | 503 kts | 106° |
| 2026-05-04 19:41 | 54.41860 | -10.11636 | 41145 ft | 503 kts | 106° |
| 2026-05-04 19:41 | 54.39916 | -10.00108 | 41137 ft | 503 kts | 106° |
| 2026-05-04 19:42 | 54.37959 | -9.88574 | 41139 ft | 503 kts | 106° |
| 2026-05-04 19:42 | 54.35991 | -9.77057 | 41135 ft | 503 kts | 106° |
| 2026-05-04 19:43 | 54.34016 | -9.65567 | 41126 ft | 502 kts | 106° |
| 2026-05-04 19:43 | 54.32032 | -9.54102 | 41127 ft | 502 kts | 106° |
| 2026-05-04 19:44 | 54.30036 | -9.42645 | 41127 ft | 502 kts | 107° |
| 2026-05-04 19:44 | 54.28045 | -9.31283 | 41119 ft | 502 kts | 107° |
| 2026-05-04 19:45 | 54.26031 | -9.19871 | 41115 ft | 502 kts | 107° |
| 2026-05-04 19:45 | 54.24003 | -9.08445 | 41118 ft | 502 kts | 107° |
| 2026-05-04 19:46 | 54.21967 | -8.97045 | 41119 ft | 501 kts | 107° |
| 2026-05-04 19:46 | 54.19919 | -8.85650 | 41123 ft | 501 kts | 107° |
| 2026-05-04 19:47 | 54.17862 | -8.74281 | 41121 ft | 501 kts | 107° |
| 2026-05-04 19:47 | 54.15798 | -8.62943 | 41127 ft | 500 kts | 107° |
| 2026-05-04 19:48 | 54.13725 | -8.51621 | 41103 ft | 499 kts | 107° |
| 2026-05-04 19:48 | 54.11645 | -8.40329 | 41102 ft | 499 kts | 107° |
| 2026-05-04 19:49 | 54.09555 | -8.29058 | 41106 ft | 499 kts | 107° |
| 2026-05-04 19:49 | 54.07454 | -8.17792 | 41102 ft | 499 kts | 107° |
| 2026-05-04 19:50 | 54.05340 | -8.06524 | 41100 ft | 499 kts | 108° |
| 2026-05-04 19:50 | 54.03217 | -7.95276 | 41099 ft | 499 kts | 108° |
| 2026-05-04 19:51 | 54.01086 | -7.84053 | 41102 ft | 499 kts | 108° |
| 2026-05-04 19:51 | 53.98943 | -7.72829 | 41094 ft | 498 kts | 108° |
| 2026-05-04 19:52 | 53.96798 | -7.61665 | 41097 ft | 497 kts | 108° |
| 2026-05-04 19:52 | 53.94658 | -7.50588 | 41094 ft | 497 kts | 108° |
| 2026-05-04 19:53 | 53.92494 | -7.39459 | 41092 ft | 497 kts | 108° |
| 2026-05-04 19:53 | 53.90323 | -7.28352 | 41088 ft | 496 kts | 108° |
| 2026-05-04 19:54 | 53.88140 | -7.17248 | 41092 ft | 496 kts | 108° |
| 2026-05-04 19:54 | 53.85949 | -7.06168 | 41089 ft | 496 kts | 108° |
| 2026-05-04 19:55 | 53.83747 | -6.95095 | 41086 ft | 496 kts | 108° |
| 2026-05-04 19:55 | 53.81536 | -6.84038 | 41083 ft | 496 kts | 108° |
| 2026-05-04 19:56 | 53.79316 | -6.73002 | 41085 ft | 495 kts | 108° |
| 2026-05-04 19:56 | 53.77091 | -6.62000 | 41087 ft | 493 kts | 108° |
| 2026-05-04 19:57 | 53.74862 | -6.51045 | 41086 ft | 493 kts | 109° |
| 2026-05-04 19:57 | 53.72622 | -6.40089 | 41086 ft | 493 kts | 109° |
| 2026-05-04 19:58 | 53.70370 | -6.29140 | 41086 ft | 493 kts | 109° |
| 2026-05-04 19:58 | 53.68112 | -6.18218 | 41089 ft | 494 kts | 109° |
| 2026-05-04 19:59 | 53.65842 | -6.07302 | 41089 ft | 493 kts | 109° |
| 2026-05-04 19:59 | 53.63557 | -5.96371 | 41091 ft | 494 kts | 109° |
| 2026-05-04 20:00 | 53.61298 | -5.85622 | 41092 ft | 494 kts | 109° |
| 2026-05-04 20:00 | 53.58966 | -5.74584 | 41091 ft | 492 kts | 109° |
| 2026-05-04 20:01 | 53.56671 | -5.63782 | 40916 ft | 489 kts | 109° |
| 2026-05-04 20:01 | 53.55524 | -5.58407 | 40311 ft | 487 kts | 109° |
| 2026-05-04 20:01 | 53.54470 | -5.53018 | 39772 ft | 483 kts | 104° |
| 2026-05-04 20:01 | 53.53820 | -5.47520 | 39243 ft | 478 kts | 96° |
| 2026-05-04 20:02 | 53.53533 | -5.41974 | 38655 ft | 476 kts | 93° |
| 2026-05-04 20:02 | 53.53344 | -5.36426 | 37852 ft | 475 kts | 92° |
| 2026-05-04 20:02 | 53.53202 | -5.30888 | 37043 ft | 475 kts | 91° |
| 2026-05-04 20:02 | 53.53076 | -5.25341 | 36265 ft | 475 kts | 91° |
| 2026-05-04 20:03 | 53.52952 | -5.19803 | 35501 ft | 474 kts | 91° |
| 2026-05-04 20:03 | 53.52822 | -5.14261 | 34771 ft | 474 kts | 91° |
| 2026-05-04 20:03 | 53.52676 | -5.08729 | 34026 ft | 473 kts | 91° |
| 2026-05-04 20:03 | 53.52508 | -5.03209 | 33132 ft | 474 kts | 91° |
| 2026-05-04 20:04 | 53.52328 | -4.97680 | 32195 ft | 475 kts | 91° |
| 2026-05-04 20:04 | 53.52142 | -4.92113 | 31236 ft | 477 kts | 91° |
| 2026-05-04 20:04 | 53.51957 | -4.86626 | 30294 ft | 479 kts | 91° |
| 2026-05-04 20:04 | 53.51768 | -4.80940 | 29235 ft | 481 kts | 91° |
| 2026-05-04 20:05 | 53.51582 | -4.75345 | 28373 ft | 478 kts | 91° |
| 2026-05-04 20:05 | 53.51393 | -4.69795 | 27628 ft | 474 kts | 92° |
| 2026-05-04 20:05 | 53.51203 | -4.64298 | 26932 ft | 469 kts | 92° |
| 2026-05-04 20:05 | 53.51016 | -4.58945 | 26328 ft | 463 kts | 92° |
| 2026-05-04 20:06 | 53.50824 | -4.53488 | 25647 ft | 459 kts | 92° |
| 2026-05-04 20:06 | 53.50634 | -4.48156 | 24979 ft | 455 kts | 92° |
| 2026-05-04 20:06 | 53.50446 | -4.42944 | 24334 ft | 451 kts | 92° |
| 2026-05-04 20:06 | 53.50255 | -4.37705 | 23702 ft | 447 kts | 93° |
| 2026-05-04 20:07 | 53.50063 | -4.32517 | 22943 ft | 443 kts | 93° |
| 2026-05-04 20:07 | 53.49871 | -4.27367 | 22170 ft | 440 kts | 93° |
| 2026-05-04 20:07 | 53.49678 | -4.22278 | 21489 ft | 434 kts | 93° |
| 2026-05-04 20:07 | 53.49486 | -4.17241 | 20753 ft | 431 kts | 93° |
| 2026-05-04 20:08 | 53.49293 | -4.12233 | 19997 ft | 428 kts | 94° |
| 2026-05-04 20:08 | 53.49100 | -4.07260 | 19276 ft | 425 kts | 94° |
| 2026-05-04 20:08 | 53.48905 | -4.02321 | 18537 ft | 423 kts | 94° |
| 2026-05-04 20:08 | 53.48597 | -3.97422 | 17745 ft | 420 kts | 101° |
| 2026-05-04 20:09 | 53.47853 | -3.92714 | 17240 ft | 416 kts | 108° |
| 2026-05-04 20:09 | 53.46966 | -3.88161 | 17084 ft | 416 kts | 109° |
| 2026-05-04 20:09 | 53.46026 | -3.83508 | 17078 ft | 416 kts | 109° |
| 2026-05-04 20:09 | 53.45404 | -3.80463 | 17080 ft | 415 kts | 109° |
| 2026-05-04 20:10 | 53.44452 | -3.75833 | 17081 ft | 415 kts | 109° |
| 2026-05-04 20:10 | 53.43503 | -3.71250 | 17083 ft | 415 kts | 109° |
| 2026-05-04 20:10 | 53.42555 | -3.66685 | 17083 ft | 415 kts | 110° |
| 2026-05-04 20:10 | 53.41643 | -3.62084 | 17080 ft | 416 kts | 106° |
| 2026-05-04 20:11 | 53.41160 | -3.57320 | 17022 ft | 412 kts | 96° |
| 2026-05-04 20:11 | 53.40932 | -3.52641 | 16404 ft | 406 kts | 94° |
| 2026-05-04 20:11 | 53.40737 | -3.47836 | 15430 ft | 410 kts | 94° |
| 2026-05-04 20:11 | 53.40539 | -3.43061 | 14662 ft | 409 kts | 95° |
| 2026-05-04 20:12 | 53.40338 | -3.38401 | 14033 ft | 404 kts | 95° |
| 2026-05-04 20:12 | 53.40132 | -3.33720 | 13244 ft | 402 kts | 95° |
| 2026-05-04 20:12 | 53.39922 | -3.29068 | 12495 ft | 398 kts | 95° |
| 2026-05-04 20:12 | 53.39714 | -3.24528 | 12161 ft | 384 kts | 95° |
| 2026-05-04 20:13 | 53.39513 | -3.20190 | 12085 ft | 363 kts | 95° |
| 2026-05-04 20:13 | 53.39343 | -3.16089 | 12084 ft | 341 kts | 92° |
| 2026-05-04 20:13 | 53.39678 | -3.12301 | 12024 ft | 322 kts | 68° |
| 2026-05-04 20:13 | 53.40662 | -3.09024 | 11839 ft | 309 kts | 59° |
| 2026-05-04 20:14 | 53.41738 | -3.05983 | 11675 ft | 297 kts | 58° |
| 2026-05-04 20:14 | 53.42773 | -3.03066 | 11490 ft | 287 kts | 58° |
| 2026-05-04 20:14 | 53.43779 | -3.00208 | 11156 ft | 282 kts | 58° |
| 2026-05-04 20:14 | 53.44765 | -2.97387 | 10831 ft | 279 kts | 58° |
| 2026-05-04 20:15 | 53.45739 | -2.94586 | 10464 ft | 277 kts | 58° |
| 2026-05-04 20:15 | 53.46706 | -2.91795 | 10089 ft | 276 kts | 58° |
| 2026-05-04 20:15 | 53.47664 | -2.89024 | 9709 ft | 273 kts | 58° |
| 2026-05-04 20:15 | 53.48612 | -2.86278 | 9293 ft | 272 kts | 58° |
| 2026-05-04 20:16 | 53.49557 | -2.83536 | 8894 ft | 270 kts | 58° |
| 2026-05-04 20:16 | 53.50494 | -2.80814 | 8526 ft | 268 kts | 58° |
| 2026-05-04 20:16 | 53.51422 | -2.78113 | 8120 ft | 266 kts | 58° |
| 2026-05-04 20:16 | 53.52317 | -2.75394 | 7668 ft | 267 kts | 63° |
| 2026-05-04 20:17 | 53.52839 | -2.72349 | 7008 ft | 278 kts | 84° |
| 2026-05-04 20:17 | 53.52752 | -2.69083 | 6509 ft | 281 kts | 97° |
| 2026-05-04 20:17 | 53.52484 | -2.65872 | 6030 ft | 281 kts | 98° |
| 2026-05-04 20:17 | 53.52185 | -2.62602 | 5603 ft | 278 kts | 98° |
| 2026-05-04 20:18 | 53.51889 | -2.59406 | 5193 ft | 275 kts | 98° |
| 2026-05-04 20:18 | 53.51591 | -2.56233 | 4737 ft | 274 kts | 98° |
| 2026-05-04 20:18 | 53.51293 | -2.53069 | 4268 ft | 274 kts | 98° |
| 2026-05-04 20:18 | 53.50996 | -2.49928 | 3852 ft | 271 kts | 98° |
| 2026-05-04 20:19 | 53.50702 | -2.46831 | 3548 ft | 267 kts | 98° |
| 2026-05-04 20:19 | 53.50407 | -2.43738 | 3478 ft | 269 kts | 98° |
| 2026-05-04 20:19 | 53.50109 | -2.40637 | 3476 ft | 270 kts | 98° |
| 2026-05-04 20:19 | 53.49812 | -2.37537 | 3480 ft | 269 kts | 98° |
| 2026-05-04 20:20 | 53.49514 | -2.34437 | 3475 ft | 267 kts | 99° |
| 2026-05-04 20:20 | 53.49224 | -2.31440 | 3479 ft | 251 kts | 98° |
| 2026-05-04 20:20 | 53.48953 | -2.28653 | 3473 ft | 231 kts | 98° |
| 2026-05-04 20:20 | 53.48710 | -2.26149 | 3487 ft | 208 kts | 98° |
| 2026-05-04 20:21 | 53.48481 | -2.23799 | 3482 ft | 201 kts | 98° |
| 2026-05-04 20:21 | 53.48256 | -2.21484 | 3478 ft | 201 kts | 98° |
| 2026-05-04 20:21 | 53.47784 | -2.16628 | 3475 ft | 231 kts | 98° |
| 2026-05-04 20:22 | 53.47533 | -2.14065 | 3492 ft | 212 kts | 98° |
| 2026-05-04 20:22 | 53.47304 | -2.11748 | 3488 ft | 191 kts | 99° |
| 2026-05-04 20:22 | 53.47096 | -2.09646 | 3490 ft | 176 kts | 98° |
| 2026-05-04 20:22 | 53.46707 | -2.07730 | 3485 ft | 177 kts | 124° |
| 2026-05-04 20:23 | 53.45628 | -2.06650 | 3474 ft | 190 kts | 174° |
| 2026-05-04 20:23 | 53.44442 | -2.07228 | 3461 ft | 174 kts | 223° |
| 2026-05-04 20:23 | 53.43853 | -2.08874 | 3478 ft | 160 kts | 247° |
| 2026-05-04 20:23 | 53.43356 | -2.10459 | 3494 ft | 149 kts | 244° |
| 2026-05-04 20:24 | 53.42828 | -2.11921 | 3494 ft | 147 kts | 238° |
| 2026-05-04 20:24 | 53.42240 | -2.13294 | 3305 ft | 143 kts | 235° |
| 2026-05-04 20:24 | 53.41602 | -2.14651 | 2794 ft | 154 kts | 233° |
| 2026-05-04 20:24 | 53.40879 | -2.16090 | 2208 ft | 167 kts | 230° |
| 2026-05-04 20:25 | 53.40104 | -2.17558 | 1757 ft | 166 kts | 233° |
| 2026-05-04 20:25 | 53.39397 | -2.19040 | 1422 ft | 159 kts | 236° |
| 2026-05-04 20:25 | 53.38738 | -2.20463 | 1181 ft | 150 kts | 235° |
| 2026-05-04 20:25 | 53.38106 | -2.21791 | 947 ft | 141 kts | 233° |
| 2026-05-04 20:26 | 53.37503 | -2.23039 | 776 ft | 139 kts | 236° |
| 2026-05-04 20:26 | 53.36903 | -2.24313 | 543 ft | 136 kts | 234° |
| 2026-05-04 20:26 | 53.36299 | -2.25566 | 366 ft | 138 kts | 234° |
| 2026-05-04 20:26 | 53.35716 | -2.26775 | 277 ft | 129 kts | 233° |
| 2026-05-04 20:27 | 53.35267 | -2.27716 | 244 ft | 62 kts | 231° |
| 2026-05-04 20:27 | 53.35117 | -2.28030 | 239 ft | 29 kts | 231° |
| 2026-05-04 20:27 | 53.34999 | -2.28311 | 237 ft | 30 kts | 242° |
| 2026-05-04 20:27 | 53.34947 | -2.28601 | 238 ft | 2 kts | 261° |
| 2026-05-04 20:28 | 53.34946 | -2.28609 | 238 ft | 3 kts | 261° |
| 2026-05-04 20:28 | 53.34946 | -2.28671 | 236 ft | 7 kts | 284° |
| 2026-05-04 20:28 | 53.34984 | -2.28727 | 238 ft | 8 kts | 353° |
| 2026-05-04 20:29 | 53.35039 | -2.28686 | 239 ft | 9 kts | 41° |
| 2026-05-04 20:29 | 53.35086 | -2.28598 | 240 ft | 12 kts | 49° |
| 2026-05-04 20:29 | 53.35127 | -2.28515 | 236 ft | 1 kts | 51° |
| 2026-05-04 20:29 | 53.35159 | -2.28449 | 236 ft | 0 kts | 51° |
| 2026-05-04 20:30 | 53.35175 | -2.28415 | 238 ft | 10 kts | 51° |
| 2026-05-04 20:30 | 53.35219 | -2.28323 | 238 ft | 10 kts | 51° |
| 2026-05-04 20:30 | 53.35292 | -2.28224 | 238 ft | 18 kts | 33° |
| 2026-05-04 20:30 | 53.35404 | -2.28165 | 242 ft | 17 kts | 8° |
| 2026-05-04 20:31 | 53.35517 | -2.28099 | 240 ft | 17 kts | 32° |
| 2026-05-04 20:31 | 53.35593 | -2.27967 | 245 ft | 15 kts | 51° |
| 2026-05-04 20:31 | 53.35674 | -2.27890 | 249 ft | 11 kts | 12° |
| 2026-05-04 20:31 | 53.35738 | -2.27877 | 253 ft | 9 kts | 6° |
| 2026-05-04 20:32 | 53.35794 | -2.27866 | 256 ft | 7 kts | 6° |
| 2026-05-04 20:32 | 53.35841 | -2.27858 | 258 ft | 6 kts | 6° |
| 2026-05-04 20:32 | 53.35880 | -2.27851 | 260 ft | 5 kts | 6° |
| 2026-05-04 20:32 | 53.35930 | -2.27852 | 261 ft | 10 kts | 351° |
| 2026-05-04 20:33 | 53.36003 | -2.27920 | 261 ft | 14 kts | 320° |
| 2026-05-04 20:33 | 53.36085 | -2.28036 | 261 ft | 18 kts | 320° |
| 2026-05-04 20:33 | 53.36178 | -2.28185 | 261 ft | 19 kts | 314° |
| 2026-05-04 20:33 | 53.36218 | -2.28254 | 261 ft | 2 kts | 314° |
| 2026-05-04 20:34 | 53.36241 | -2.28295 | 261 ft | 7 kts | 314° |
| 2026-05-04 20:34 | 53.36290 | -2.28375 | 261 ft | 12 kts | 315° |
| 2026-05-04 20:34 | 53.36368 | -2.28465 | 261 ft | 16 kts | 342° |
| 2026-05-04 20:34 | 53.36461 | -2.28558 | 261 ft | 14 kts | 316° |
| 2026-05-04 20:35 | 53.36536 | -2.28682 | 261 ft | 16 kts | 313° |
| 2026-05-04 20:35 | 53.36622 | -2.28761 | 261 ft | 13 kts | 14° |
| 2026-05-04 20:35 | 53.36688 | -2.28689 | 261 ft | 8 kts | 26° |
| 2026-05-04 20:35 | 53.36732 | -2.28704 | 261 ft | 7 kts | 334° |
| 2026-05-04 20:36 | 53.36754 | -2.28747 | 261 ft | 0 kts | 313° |
| 2026-05-04 20:36 | 53.36757 | -2.28752 | 261 ft | 0 kts | 313° |